aviador You're here:

KTVR Decoded Metar

TALLULAH/VICKSBU in LA, USA
Report Time2017-03-28 05:53:00
UTC Time2017-03-28 06:12:02
Flight Rules vfr VFR
WindCalm
Visibility9999 m
Phenomena:N/A
Clouds:N/A
Expected CloudBase > 800 ft AGL from Temp-Dew spread
CeilingNone
Temp20°C (ISA +5)
Dew Point18°C (88% RH)
QNH1013 hPa
Density Alt965 ft
Elevation85 ft
Report Wrong Elevation
Raw Report
KTVR 280553Z AUTO 00000KT 10SM CLR 20/18 A2992 RMK AO2 SLP138
T02000178 10206 20183 402830183 51006=

Extra information for KTVR:More info

Metar Taf Metar & Taf Last 4 Metars F.Rules Stats Wind Profile Meteogram Temp Stats Airport Information Weather charts Add Link Nearby VenuesMetar ALERT Operation Metar Decoded Social comments

AIRNAV info for KTVR